createdAt,value
2023-02-16T00:00:54.066Z,1.79
2023-02-16T00:03:23.054Z,1.79
2023-02-16T00:05:51.284Z,1.79
2023-02-16T00:08:18.698Z,1.78
2023-02-16T00:11:07.068Z,1.80
2023-02-16T00:13:48.315Z,1.79
2023-02-16T00:16:20.724Z,1.78
2023-02-16T00:18:48.844Z,1.78
2023-02-16T00:21:16.685Z,1.76
2023-02-16T00:23:45.060Z,1.75
2023-02-16T00:26:18.653Z,1.77
2023-02-16T00:28:50.548Z,1.75
2023-02-16T00:31:23.980Z,1.75
2023-02-16T00:33:51.101Z,1.75
2023-02-16T00:36:21.271Z,1.73
2023-02-16T00:38:48.559Z,1.75
2023-02-16T00:41:37.362Z,1.76
2023-02-16T00:44:20.667Z,1.74
2023-02-16T00:46:48.620Z,1.70
2023-02-16T00:49:18.834Z,1.71
2023-02-16T00:51:47.916Z,1.70
2023-02-16T00:54:15.585Z,1.69
2023-02-16T00:56:43.737Z,1.65
2023-02-16T00:59:22.665Z,1.66
2023-02-16T01:01:50.329Z,1.62
2023-02-16T01:04:22.912Z,1.62
2023-02-16T01:07:08.661Z,1.60
2023-02-16T01:09:54.578Z,1.51
2023-02-16T01:12:22.189Z,1.51
2023-02-16T01:14:53.469Z,1.49
2023-02-16T01:17:24.801Z,1.44
2023-02-16T01:19:55.177Z,1.42
2023-02-16T01:22:22.564Z,1.40
2023-02-16T01:24:50.017Z,1.40
2023-02-16T01:27:18.305Z,1.37
2023-02-16T01:29:46.293Z,1.37
2023-02-16T01:32:14.895Z,1.33
2023-02-16T01:34:42.571Z,1.33
2023-02-16T01:37:16.085Z,1.34
2023-02-16T01:39:44.875Z,1.37
2023-02-16T01:42:34.882Z,1.38
2023-02-16T01:45:09.370Z,1.41
2023-02-16T01:47:44.928Z,1.44
2023-02-16T01:50:17.253Z,1.42
2023-02-16T01:52:56.993Z,1.45
2023-02-16T01:55:43.180Z,1.48
2023-02-16T01:58:36.072Z,1.50
2023-02-16T02:01:05.394Z,1.51
2023-02-16T02:03:55.252Z,1.50
2023-02-16T02:06:34.984Z,1.51
2023-02-16T02:09:02.378Z,1.50
2023-02-16T02:11:56.760Z,1.52
2023-02-16T02:14:28.233Z,1.53
2023-02-16T02:17:03.206Z,1.50
2023-02-16T02:19:56.828Z,1.53
2023-02-16T02:22:46.606Z,1.53
2023-02-16T02:25:35.992Z,1.53
2023-02-16T02:28:08.908Z,1.51
2023-02-16T02:30:42.014Z,1.51
2023-02-16T02:33:12.206Z,1.51
2023-02-16T02:35:59.067Z,1.51
2023-02-16T02:38:44.473Z,1.49
2023-02-16T02:42:07.359Z,1.49
2023-02-16T02:44:46.740Z,1.48
2023-02-16T02:47:14.259Z,1.50
2023-02-16T02:49:54.267Z,1.51
2023-02-16T02:52:22.928Z,1.51
2023-02-16T02:55:09.301Z,1.52
2023-02-16T02:58:03.668Z,1.52
2023-02-16T03:00:41.806Z,1.54
2023-02-16T03:03:12.428Z,1.50
2023-02-16T03:05:44.315Z,1.54
2023-02-16T03:08:15.676Z,1.55
2023-02-16T03:11:08.829Z,1.55
2023-02-16T03:13:40.815Z,1.55
2023-02-16T03:16:13.293Z,1.52
2023-02-16T03:19:02.686Z,1.53
2023-02-16T03:21:48.829Z,1.53
2023-02-16T03:24:40.738Z,1.53
2023-02-16T03:27:28.101Z,1.51
2023-02-16T03:29:57.319Z,1.53
2023-02-16T03:32:24.830Z,1.54
2023-02-16T03:34:52.336Z,1.54
2023-02-16T03:37:19.545Z,1.58
2023-02-16T03:40:05.575Z,1.58
2023-02-16T03:42:32.850Z,1.58
2023-02-16T03:45:00.329Z,1.60
2023-02-16T03:47:27.573Z,1.60
2023-02-16T03:49:54.989Z,1.62
2023-02-16T03:52:22.424Z,1.63
2023-02-16T03:54:49.774Z,1.64
2023-02-16T03:57:17.555Z,1.65
2023-02-16T03:59:44.693Z,1.65
2023-02-16T04:02:12.182Z,1.64
2023-02-16T04:04:39.884Z,1.64
2023-02-16T04:07:07.339Z,1.63
2023-02-16T04:09:34.696Z,1.63
2023-02-16T04:12:20.624Z,1.64
2023-02-16T04:14:48.176Z,1.64
2023-02-16T04:17:15.264Z,1.62
2023-02-16T04:19:42.575Z,1.63
2023-02-16T04:22:09.819Z,1.64
2023-02-16T04:24:36.994Z,1.67
2023-02-16T04:27:07.736Z,1.67
2023-02-16T04:29:35.381Z,1.66
2023-02-16T04:32:02.583Z,1.66
2023-02-16T04:34:30.131Z,1.60
2023-02-16T04:36:57.244Z,1.62
2023-02-16T04:39:24.578Z,1.61
2023-02-16T04:41:52.097Z,1.61
2023-02-16T04:44:19.530Z,1.62
2023-02-16T04:46:46.735Z,1.63
2023-02-16T04:49:13.995Z,1.62
2023-02-16T04:51:41.191Z,1.62
2023-02-16T04:54:08.609Z,1.60
2023-02-16T04:56:35.799Z,1.59
2023-02-16T04:59:03.852Z,1.57
2023-02-16T05:01:31.501Z,1.58
2023-02-16T05:03:58.974Z,1.57
2023-02-16T05:06:26.261Z,1.58
2023-02-16T05:08:53.614Z,1.59
2023-02-16T05:11:39.427Z,1.58
2023-02-16T05:14:25.636Z,1.59
2023-02-16T05:16:54.394Z,1.59
2023-02-16T05:19:21.766Z,1.60
2023-02-16T05:21:49.407Z,1.62
2023-02-16T05:24:17.123Z,1.63
2023-02-16T05:26:44.972Z,1.64
2023-02-16T05:29:13.157Z,1.66
2023-02-16T05:31:41.188Z,1.67
2023-02-16T05:34:09.069Z,1.70
2023-02-16T05:36:36.355Z,1.70
2023-02-16T05:39:05.083Z,1.67
2023-02-16T05:41:32.659Z,1.70
2023-02-16T05:44:03.610Z,1.74
2023-02-16T05:46:35.188Z,1.70
2023-02-16T05:49:04.296Z,1.63
2023-02-16T05:51:31.646Z,1.62
2023-02-16T05:53:59.570Z,1.69
2023-02-16T05:56:28.350Z,1.70
2023-02-16T05:58:56.008Z,1.66
2023-02-16T06:01:23.397Z,1.70
2023-02-16T06:03:51.080Z,1.70
2023-02-16T06:06:19.585Z,1.73
2023-02-16T06:08:47.753Z,1.72
2023-02-16T06:11:35.780Z,1.84
2023-02-16T06:14:08.536Z,1.78
2023-02-16T06:16:39.167Z,1.86
2023-02-16T06:19:07.704Z,2.02
2023-02-16T06:21:36.790Z,2.02
2023-02-16T06:24:05.597Z,2.04
2023-02-16T06:26:34.967Z,2.25
2023-02-16T06:29:03.221Z,2.39
2023-02-16T06:31:31.151Z,2.57
2023-02-16T06:33:59.552Z,2.56
2023-02-16T06:36:27.371Z,2.56
2023-02-16T06:38:55.114Z,2.73
2023-02-16T06:41:31.977Z,2.85
2023-02-16T06:44:01.547Z,2.95
2023-02-16T06:46:29.864Z,3.02
2023-02-16T06:48:57.802Z,3.17
2023-02-16T06:51:25.555Z,3.27
2023-02-16T06:53:53.072Z,3.22
2023-02-16T06:56:20.480Z,3.38
2023-02-16T06:58:47.948Z,3.54
2023-02-16T07:01:15.641Z,3.65
2023-02-16T07:03:43.156Z,3.76
2023-02-16T07:06:11.252Z,3.93
2023-02-16T07:08:38.828Z,3.89
2023-02-16T07:11:07.056Z,4.03
2023-02-16T07:13:38.137Z,4.10
2023-02-16T07:16:09.304Z,4.17
2023-02-16T07:18:37.747Z,4.09
2023-02-16T07:21:06.260Z,4.27
2023-02-16T07:23:35.154Z,4.52
2023-02-16T07:26:02.868Z,4.69
2023-02-16T07:28:30.688Z,4.54
2023-02-16T07:30:59.593Z,4.43
2023-02-16T07:33:27.616Z,4.62
2023-02-16T07:35:55.525Z,4.72
2023-02-16T07:38:22.892Z,4.83
2023-02-16T07:40:50.281Z,5.04
2023-02-16T07:43:19.162Z,5.21
2023-02-16T07:45:46.910Z,5.37
2023-02-16T07:48:14.317Z,5.48
2023-02-16T07:50:42.960Z,5.42
2023-02-16T07:53:12.962Z,5.42
2023-02-16T07:55:42.811Z,5.32
2023-02-16T07:58:11.449Z,5.02
2023-02-16T08:00:39.309Z,4.78
2023-02-16T08:03:07.382Z,4.68
2023-02-16T08:05:35.427Z,4.80
2023-02-16T08:08:03.298Z,4.71
2023-02-16T08:10:30.672Z,4.73
2023-02-16T08:12:58.169Z,4.67
2023-02-16T08:15:25.459Z,4.56
2023-02-16T08:17:53.230Z,4.45
2023-02-16T08:20:23.828Z,4.53
2023-02-16T08:22:55.887Z,4.41
2023-02-16T08:25:22.986Z,4.32
2023-02-16T08:27:50.708Z,4.41
2023-02-16T08:30:18.671Z,4.31
2023-02-16T08:32:46.751Z,4.35
2023-02-16T08:35:16.543Z,4.56
2023-02-16T08:37:45.611Z,4.53
2023-02-16T08:40:13.318Z,4.78
2023-02-16T08:42:40.886Z,4.88
2023-02-16T08:45:09.314Z,4.99
2023-02-16T08:47:37.142Z,5.18
2023-02-16T08:50:05.581Z,5.31
2023-02-16T08:52:33.157Z,5.39
2023-02-16T08:55:01.155Z,5.28
2023-02-16T08:57:28.729Z,5.38
2023-02-16T09:00:15.893Z,5.53
2023-02-16T09:02:43.742Z,5.47
2023-02-16T09:05:10.967Z,5.52
2023-02-16T09:07:39.324Z,5.36
2023-02-16T09:10:08.421Z,5.39
2023-02-16T09:12:37.415Z,5.38
2023-02-16T09:15:05.248Z,5.55
2023-02-16T09:17:33.527Z,5.50
2023-02-16T09:20:03.248Z,5.53
2023-02-16T09:22:31.004Z,5.32
2023-02-16T09:24:58.276Z,5.47
2023-02-16T09:27:27.249Z,5.59
2023-02-16T09:29:55.080Z,5.34
2023-02-16T09:32:23.299Z,5.35
2023-02-16T09:34:51.968Z,5.46
2023-02-16T09:37:19.184Z,5.47
2023-02-16T09:39:47.944Z,5.63
2023-02-16T09:42:19.921Z,5.72
2023-02-16T09:44:59.247Z,5.54
2023-02-16T09:47:31.502Z,5.49
2023-02-16T09:50:52.140Z,5.60
2023-02-16T09:53:36.817Z,5.76
2023-02-16T09:56:08.927Z,5.68
2023-02-16T09:59:13.087Z,5.65
2023-02-16T10:02:00.797Z,5.59
2023-02-16T10:04:44.239Z,5.64
2023-02-16T10:07:25.057Z,5.72
2023-02-16T10:09:56.814Z,5.94
2023-02-16T10:12:33.074Z,5.91
2023-02-16T10:15:10.311Z,5.78
2023-02-16T10:17:45.377Z,5.87
2023-02-16T10:20:43.635Z,6.19
2023-02-16T10:23:31.785Z,6.40
2023-02-16T10:26:19.031Z,6.35
2023-02-16T10:28:49.058Z,6.33
2023-02-16T10:31:45.105Z,6.36
2023-02-16T10:34:24.720Z,6.51
2023-02-16T10:37:19.775Z,6.59
2023-02-16T10:40:15.241Z,6.93
2023-02-16T10:42:47.322Z,7.11
2023-02-16T10:45:16.466Z,7.29
2023-02-16T10:47:48.124Z,7.46
2023-02-16T10:50:49.108Z,7.32
2023-02-16T10:53:22.027Z,7.65
2023-02-16T10:55:50.855Z,7.61
2023-02-16T10:58:27.506Z,7.78
2023-02-16T11:01:15.347Z,8.16
2023-02-16T11:03:53.598Z,8.86
2023-02-16T11:06:23.587Z,9.11
2023-02-16T11:08:58.172Z,9.20
2023-02-16T11:11:30.445Z,9.45
2023-02-16T11:14:06.378Z,9.93
2023-02-16T11:16:35.071Z,9.91
2023-02-16T11:19:23.074Z,9.70
2023-02-16T11:21:57.707Z,9.72
2023-02-16T11:24:34.376Z,9.41
2023-02-16T11:27:20.857Z,9.18
2023-02-16T11:29:51.624Z,8.73
2023-02-16T11:32:22.026Z,8.78
2023-02-16T11:34:52.704Z,8.92
2023-02-16T11:37:34.523Z,9.05
2023-02-16T11:40:21.541Z,8.99
2023-02-16T11:42:56.560Z,8.90
2023-02-16T11:45:33.209Z,8.79
2023-02-16T11:48:08.211Z,8.81
2023-02-16T11:50:39.008Z,8.60
2023-02-16T11:53:13.006Z,8.42
2023-02-16T11:55:44.855Z,8.17
2023-02-16T11:58:29.834Z,8.20
2023-02-16T12:01:10.619Z,8.32
2023-02-16T12:04:14.594Z,8.41
2023-02-16T12:07:01.102Z,8.50
2023-02-16T12:09:39.584Z,8.42
2023-02-16T12:12:32.504Z,8.29
2023-02-16T12:15:00.916Z,8.52
2023-02-16T12:17:41.060Z,8.36
2023-02-16T12:20:33.526Z,8.14
2023-02-16T12:23:36.570Z,8.11
2023-02-16T12:26:20.485Z,7.68
2023-02-16T12:29:00.423Z,7.56
2023-02-16T12:31:38.074Z,7.38
2023-02-16T12:34:06.322Z,7.25
2023-02-16T12:36:47.986Z,7.16
2023-02-16T12:39:31.962Z,7.19
2023-02-16T12:42:18.519Z,7.20
2023-02-16T12:44:54.584Z,7.21
2023-02-16T12:47:30.228Z,7.23
2023-02-16T12:50:03.942Z,7.17
2023-02-16T12:52:40.640Z,7.15
2023-02-16T12:55:56.531Z,7.01
2023-02-16T12:58:31.304Z,6.96
2023-02-16T13:01:05.416Z,7.05
2023-02-16T13:03:40.962Z,6.95
2023-02-16T13:06:17.782Z,6.72
2023-02-16T13:09:21.095Z,6.84
2023-02-16T13:12:12.853Z,6.75
2023-02-16T13:14:44.886Z,6.65
2023-02-16T13:17:54.614Z,6.89
2023-02-16T13:20:23.725Z,6.61
2023-02-16T13:23:22.217Z,6.62
2023-02-16T13:25:58.983Z,6.35
2023-02-16T13:28:41.797Z,6.15
2023-02-16T13:31:54.189Z,6.04
2023-02-16T13:34:33.814Z,5.93
2023-02-16T13:37:25.248Z,5.93
2023-02-16T13:40:12.065Z,5.66
2023-02-16T13:43:04.294Z,5.69
2023-02-16T13:45:38.666Z,5.63
2023-02-16T13:48:29.899Z,5.55
2023-02-16T13:51:04.924Z,5.41
2023-02-16T13:53:51.120Z,5.21
2023-02-16T13:56:29.883Z,4.98
2023-02-16T13:59:20.746Z,4.88
2023-02-16T14:01:51.284Z,4.87
2023-02-16T14:04:27.722Z,4.86
2023-02-16T14:07:04.100Z,4.70
2023-02-16T14:09:43.198Z,4.56
2023-02-16T14:12:28.469Z,4.46
2023-02-16T14:15:01.259Z,4.34
2023-02-16T14:17:29.875Z,4.31
2023-02-16T14:20:25.475Z,4.20
2023-02-16T14:22:57.777Z,4.06
2023-02-16T14:25:25.139Z,4.02
2023-02-16T14:27:57.622Z,4.05
2023-02-16T14:30:31.648Z,4.10
2023-02-16T14:33:05.996Z,4.08
2023-02-16T14:35:37.828Z,4.03
2023-02-16T14:38:16.741Z,3.99
2023-02-16T14:40:55.750Z,3.96
2023-02-16T14:43:41.819Z,3.88
2023-02-16T14:46:12.718Z,3.65
2023-02-16T14:48:55.536Z,3.63
2023-02-16T14:51:41.174Z,3.45
2023-02-16T14:54:31.254Z,3.30
2023-02-16T14:57:27.432Z,3.19
2023-02-16T15:00:00.139Z,3.09
2023-02-16T15:02:39.336Z,2.95
2023-02-16T15:05:19.032Z,2.89
2023-02-16T15:07:51.593Z,2.77
2023-02-16T15:10:27.280Z,2.71
2023-02-16T15:12:56.896Z,2.54
2023-02-16T15:15:36.925Z,2.37
2023-02-16T15:18:06.852Z,2.29
2023-02-16T15:20:39.202Z,2.09
2023-02-16T15:23:30.225Z,1.89
2023-02-16T15:26:00.685Z,1.79
2023-02-16T15:28:36.226Z,1.66
2023-02-16T15:31:07.047Z,1.48
2023-02-16T15:33:44.760Z,1.30
2023-02-16T15:36:14.470Z,1.24
2023-02-16T15:38:54.921Z,1.18
2023-02-16T15:41:38.009Z,1.07
2023-02-16T15:44:07.599Z,1.01
2023-02-16T15:46:42.321Z,0.98
2023-02-16T15:49:30.618Z,0.92
2023-02-16T15:51:59.413Z,0.86
2023-02-16T15:54:29.026Z,0.81
2023-02-16T15:56:58.742Z,0.75
2023-02-16T15:59:41.164Z,0.70
2023-02-16T16:02:28.632Z,0.76
2023-02-16T16:04:59.227Z,0.71
2023-02-16T16:07:41.972Z,0.71
2023-02-16T16:10:37.047Z,0.68
2023-02-16T16:13:07.548Z,0.64
2023-02-16T16:15:40.943Z,0.69
2023-02-16T16:18:37.827Z,0.71
2023-02-16T16:21:14.168Z,0.73
2023-02-16T16:23:42.901Z,0.76
2023-02-16T16:26:20.524Z,0.78
2023-02-16T16:28:48.256Z,0.81
2023-02-16T16:31:21.713Z,0.78
2023-02-16T16:33:58.749Z,0.75
2023-02-16T16:36:37.046Z,0.73
2023-02-16T16:39:19.463Z,0.72
2023-02-16T16:42:04.367Z,0.67
2023-02-16T16:44:52.839Z,0.63
2023-02-16T16:47:22.869Z,0.52
2023-02-16T16:49:55.943Z,0.49
2023-02-16T16:52:47.835Z,0.39
2023-02-16T16:55:25.158Z,0.34
2023-02-16T16:58:00.614Z,0.28
2023-02-16T17:00:38.526Z,0.23
2023-02-16T17:03:08.441Z,0.23
2023-02-16T17:05:38.594Z,0.16
2023-02-16T17:08:06.154Z,0.09
2023-02-16T17:10:35.376Z,0.06
2023-02-16T17:13:03.463Z,0.02
2023-02-16T17:15:44.680Z,0.01
2023-02-16T17:18:17.551Z,-0.02
2023-02-16T17:20:45.800Z,-0.08
2023-02-16T17:23:14.535Z,-0.10
2023-02-16T17:25:42.494Z,-0.14
2023-02-16T17:28:11.850Z,-0.15
2023-02-16T17:30:39.619Z,-0.16
2023-02-16T17:33:07.644Z,-0.21
2023-02-16T17:35:38.118Z,-0.25
2023-02-16T17:38:20.776Z,-0.23
2023-02-16T17:40:49.758Z,-0.29
2023-02-16T17:43:18.880Z,-0.29
2023-02-16T17:45:47.612Z,-0.30
2023-02-16T17:48:28.946Z,-0.31
2023-02-16T17:51:00.569Z,-0.34
2023-02-16T17:53:29.550Z,-0.36
2023-02-16T17:55:58.115Z,-0.41
2023-02-16T17:58:26.038Z,-0.40
2023-02-16T18:00:54.518Z,-0.42
2023-02-16T18:03:23.516Z,-0.45
2023-02-16T18:05:51.706Z,-0.52
2023-02-16T18:08:20.271Z,-0.54
2023-02-16T18:10:51.344Z,-0.60
2023-02-16T18:13:19.718Z,-0.64
2023-02-16T18:15:49.155Z,-0.65
2023-02-16T18:18:18.626Z,-0.65
2023-02-16T18:20:47.535Z,-0.71
2023-02-16T18:23:16.073Z,-0.71
2023-02-16T18:25:44.704Z,-0.71
2023-02-16T18:28:21.288Z,-0.68
2023-02-16T18:30:51.191Z,-0.70
2023-02-16T18:33:22.928Z,-0.73
2023-02-16T18:35:56.531Z,-0.74
2023-02-16T18:38:25.012Z,-0.78
2023-02-16T18:40:54.385Z,-0.83
2023-02-16T18:43:23.217Z,-0.90
2023-02-16T18:45:51.858Z,-0.95
2023-02-16T18:48:19.767Z,-1.00
2023-02-16T18:50:47.636Z,-1.03
2023-02-16T18:53:15.561Z,-1.07
2023-02-16T18:55:46.500Z,-1.10
2023-02-16T18:58:15.579Z,-1.06
2023-02-16T19:00:43.392Z,-1.05
2023-02-16T19:03:12.555Z,-1.08
2023-02-16T19:05:40.394Z,-1.08
2023-02-16T19:08:08.358Z,-1.13
2023-02-16T19:10:36.044Z,-1.13
2023-02-16T19:13:05.712Z,-1.13
2023-02-16T19:15:34.521Z,-1.17
2023-02-16T19:18:01.869Z,-1.16
2023-02-16T19:20:30.018Z,-1.18
2023-02-16T19:22:57.878Z,-1.22
2023-02-16T19:25:25.164Z,-1.25
2023-02-16T19:27:52.879Z,-1.25
2023-02-16T19:30:22.107Z,-1.26
2023-02-16T19:32:49.699Z,-1.26
2023-02-16T19:35:17.561Z,-1.25
2023-02-16T19:37:45.290Z,-1.30
2023-02-16T19:40:13.389Z,-1.25
2023-02-16T19:42:41.111Z,-1.25
2023-02-16T19:45:08.982Z,-1.31
2023-02-16T19:47:36.530Z,-1.30
2023-02-16T19:50:04.393Z,-1.31
2023-02-16T19:52:32.474Z,-1.34
2023-02-16T19:54:59.740Z,-1.28
2023-02-16T19:57:27.007Z,-1.29
2023-02-16T19:59:54.695Z,-1.33
2023-02-16T20:02:25.080Z,-1.28
2023-02-16T20:04:54.765Z,-1.32
2023-02-16T20:07:29.174Z,-1.32
2023-02-16T20:09:58.798Z,-1.34
2023-02-16T20:12:29.885Z,-1.31
2023-02-16T20:15:01.952Z,-1.29
2023-02-16T20:17:29.649Z,-1.26
2023-02-16T20:19:57.484Z,-1.31
2023-02-16T20:22:25.074Z,-1.31
2023-02-16T20:24:52.363Z,-1.34
2023-02-16T20:27:19.735Z,-1.37
2023-02-16T20:29:47.913Z,-1.41
2023-02-16T20:32:15.770Z,-1.45
2023-02-16T20:34:43.325Z,-1.47
2023-02-16T20:37:11.086Z,-1.51
2023-02-16T20:39:38.731Z,-1.52
2023-02-16T20:42:05.914Z,-1.55
2023-02-16T20:44:34.263Z,-1.59
2023-02-16T20:47:02.176Z,-1.61
2023-02-16T20:49:30.028Z,-1.66
2023-02-16T20:51:57.606Z,-1.69
2023-02-16T20:54:24.783Z,-1.74
2023-02-16T20:56:52.304Z,-1.74
2023-02-16T20:59:19.522Z,-1.77
2023-02-16T21:01:47.755Z,-1.77
2023-02-16T21:04:18.101Z,-1.74
2023-02-16T21:06:45.954Z,-1.71
2023-02-16T21:09:14.244Z,-1.68
2023-02-16T21:11:43.247Z,-1.62
2023-02-16T21:14:12.440Z,-1.57
2023-02-16T21:16:41.266Z,-1.48
2023-02-16T21:19:20.941Z,-1.42
2023-02-16T21:21:49.611Z,-1.37
2023-02-16T21:24:16.641Z,-1.31
2023-02-16T21:26:44.176Z,-1.24
2023-02-16T21:29:11.837Z,-1.20
2023-02-16T21:31:39.441Z,-1.13
2023-02-16T21:34:06.868Z,-1.09
2023-02-16T21:36:34.281Z,-1.11
2023-02-16T21:39:02.972Z,-1.12
2023-02-16T21:41:34.229Z,-1.15
2023-02-16T21:44:04.630Z,-1.19
2023-02-16T21:46:33.801Z,-1.23
2023-02-16T21:49:01.676Z,-1.25
2023-02-16T21:51:33.550Z,-1.26
2023-02-16T21:54:02.726Z,-1.25
2023-02-16T21:56:36.982Z,-1.24
2023-02-16T21:59:06.874Z,-1.23
2023-02-16T22:01:46.073Z,-1.23
2023-02-16T22:04:16.421Z,-1.24
2023-02-16T22:06:47.006Z,-1.25
2023-02-16T22:09:24.834Z,-1.24
2023-02-16T22:11:52.552Z,-1.26
2023-02-16T22:14:20.135Z,-1.23
2023-02-16T22:16:48.730Z,-1.23
2023-02-16T22:19:18.567Z,-1.18
2023-02-16T22:21:47.939Z,-1.17
2023-02-16T22:24:17.262Z,-1.17
2023-02-16T22:26:46.252Z,-1.16
2023-02-16T22:29:13.295Z,-1.19
2023-02-16T22:31:45.297Z,-1.19
2023-02-16T22:34:14.988Z,-1.17
2023-02-16T22:36:42.188Z,-1.12
2023-02-16T22:39:13.235Z,-1.13
2023-02-16T22:41:40.603Z,-1.13
2023-02-16T22:44:07.938Z,-1.15
2023-02-16T22:46:36.077Z,-1.17
2023-02-16T22:49:03.640Z,-1.20
2023-02-16T22:51:31.974Z,-1.18
2023-02-16T22:54:00.915Z,-1.22
2023-02-16T22:56:28.505Z,-1.27
2023-02-16T22:58:57.675Z,-1.25
2023-02-16T23:01:27.037Z,-1.25
2023-02-16T23:04:00.361Z,-1.24
2023-02-16T23:06:36.112Z,-1.24
2023-02-16T23:09:15.969Z,-1.26
2023-02-16T23:11:43.990Z,-1.29
2023-02-16T23:14:16.726Z,-1.31
2023-02-16T23:16:51.077Z,-1.33
2023-02-16T23:19:24.733Z,-1.36
2023-02-16T23:21:52.538Z,-1.34
2023-02-16T23:24:23.216Z,-1.34
2023-02-16T23:26:54.594Z,-1.34
2023-02-16T23:29:21.825Z,-1.34
2023-02-16T23:31:49.303Z,-1.34
2023-02-16T23:34:17.789Z,-1.33
2023-02-16T23:36:45.678Z,-1.33
2023-02-16T23:39:15.506Z,-1.35
2023-02-16T23:41:43.170Z,-1.33
2023-02-16T23:44:12.928Z,-1.35
2023-02-16T23:46:40.442Z,-1.39
2023-02-16T23:49:08.210Z,-1.40
2023-02-16T23:51:35.309Z,-1.39
2023-02-16T23:54:02.711Z,-1.38
2023-02-16T23:56:30.069Z,-1.35
2023-02-16T23:59:00.252Z,-1.34
